sensor_id;sensor_type;location;lat;lon;timestamp;temperature;humidity
43842;DHT22;29495;49.970;20.842;2022-09-21T00:03:52;10.10;99.90
43842;DHT22;29495;49.970;20.842;2022-09-21T00:06:20;10.10;99.90
43842;DHT22;29495;49.970;20.842;2022-09-21T00:08:47;10.20;99.90
43842;DHT22;29495;49.970;20.842;2022-09-21T00:11:36;10.10;99.90
43842;DHT22;29495;49.970;20.842;2022-09-21T00:14:04;10.20;99.90
43842;DHT22;29495;49.970;20.842;2022-09-21T00:16:31;10.10;99.90
43842;DHT22;29495;49.970;20.842;2022-09-21T00:18:59;10.20;99.90
43842;DHT22;29495;49.970;20.842;2022-09-21T00:21:25;10.20;99.90
43842;DHT22;29495;49.970;20.842;2022-09-21T00:23:52;10.20;99.90
43842;DHT22;29495;49.970;20.842;2022-09-21T00:26:21;10.10;99.90
43842;DHT22;29495;49.970;20.842;2022-09-21T00:28:54;10.10;99.90
43842;DHT22;29495;49.970;20.842;2022-09-21T00:31:21;10.10;99.90
43842;DHT22;29495;49.970;20.842;2022-09-21T00:33:48;10.00;99.90
43842;DHT22;29495;49.970;20.842;2022-09-21T00:36:18;9.90;99.90
43842;DHT22;29495;49.970;20.842;2022-09-21T00:38:48;9.90;99.90
43842;DHT22;29495;49.970;20.842;2022-09-21T00:41:14;9.80;99.90
43842;DHT22;29495;49.970;20.842;2022-09-21T00:43:45;9.90;99.90
43842;DHT22;29495;49.970;20.842;2022-09-21T00:46:26;9.80;99.90
43842;DHT22;29495;49.970;20.842;2022-09-21T00:48:53;9.70;99.90
43842;DHT22;29495;49.970;20.842;2022-09-21T00:51:20;9.60;99.90
43842;DHT22;29495;49.970;20.842;2022-09-21T00:53:48;9.50;99.90
43842;DHT22;29495;49.970;20.842;2022-09-21T00:56:16;9.50;99.90
43842;DHT22;29495;49.970;20.842;2022-09-21T00:58:48;9.50;99.90
43842;DHT22;29495;49.970;20.842;2022-09-21T01:01:16;9.50;99.90
43842;DHT22;29495;49.970;20.842;2022-09-21T01:03:47;9.50;99.90
43842;DHT22;29495;49.970;20.842;2022-09-21T01:06:15;9.50;99.90
43842;DHT22;29495;49.970;20.842;2022-09-21T01:08:44;9.50;99.90
43842;DHT22;29495;49.970;20.842;2022-09-21T01:14:27;9.50;99.90
43842;DHT22;29495;49.970;20.842;2022-09-21T01:17:12;9.60;99.90
43842;DHT22;29495;49.970;20.842;2022-09-21T01:28:20;9.50;99.90
43842;DHT22;29495;49.970;20.842;2022-09-21T01:30:51;9.50;99.90
43842;DHT22;29495;49.970;20.842;2022-09-21T01:33:35;9.60;99.90
43842;DHT22;29495;49.970;20.842;2022-09-21T01:36:15;9.60;99.90
43842;DHT22;29495;49.970;20.842;2022-09-21T01:38:47;9.60;99.90
43842;DHT22;29495;49.970;20.842;2022-09-21T01:41:18;9.50;99.90
43842;DHT22;29495;49.970;20.842;2022-09-21T01:43:49;9.50;99.90
43842;DHT22;29495;49.970;20.842;2022-09-21T01:46:18;9.40;99.90
43842;DHT22;29495;49.970;20.842;2022-09-21T01:48:46;9.40;99.90
43842;DHT22;29495;49.970;20.842;2022-09-21T01:51:15;9.40;99.90
43842;DHT22;29495;49.970;20.842;2022-09-21T01:53:58;9.40;99.90
43842;DHT22;29495;49.970;20.842;2022-09-21T01:56:32;9.40;99.90
43842;DHT22;29495;49.970;20.842;2022-09-21T01:59:09;9.40;99.90
43842;DHT22;29495;49.970;20.842;2022-09-21T02:01:43;9.40;99.90
43842;DHT22;29495;49.970;20.842;2022-09-21T02:04:12;9.40;99.90
43842;DHT22;29495;49.970;20.842;2022-09-21T02:06:41;9.30;99.90
43842;DHT22;29495;49.970;20.842;2022-09-21T02:09:09;9.40;99.90
43842;DHT22;29495;49.970;20.842;2022-09-21T02:11:36;9.30;99.90
43842;DHT22;29495;49.970;20.842;2022-09-21T02:14:10;9.40;99.90
43842;DHT22;29495;49.970;20.842;2022-09-21T02:16:39;9.50;99.90
43842;DHT22;29495;49.970;20.842;2022-09-21T02:21:55;9.50;99.90
43842;DHT22;29495;49.970;20.842;2022-09-21T02:24:34;9.60;99.90
43842;DHT22;29495;49.970;20.842;2022-09-21T02:27:47;9.60;99.90
43842;DHT22;29495;49.970;20.842;2022-09-21T02:30:16;9.60;99.90
43842;DHT22;29495;49.970;20.842;2022-09-21T02:43:47;9.50;99.90
43842;DHT22;29495;49.970;20.842;2022-09-21T02:47:06;9.50;99.90
43842;DHT22;29495;49.970;20.842;2022-09-21T02:49:11;9.50;99.90
43842;DHT22;29495;49.970;20.842;2022-09-21T02:51:48;9.50;99.90
43842;DHT22;29495;49.970;20.842;2022-09-21T02:54:17;9.50;99.90
43842;DHT22;29495;49.970;20.842;2022-09-21T02:56:46;9.50;99.90
43842;DHT22;29495;49.970;20.842;2022-09-21T02:59:14;9.50;99.90
43842;DHT22;29495;49.970;20.842;2022-09-21T03:01:41;9.50;99.90
43842;DHT22;29495;49.970;20.842;2022-09-21T03:04:08;9.50;99.90
43842;DHT22;29495;49.970;20.842;2022-09-21T03:06:34;9.40;99.90
43842;DHT22;29495;49.970;20.842;2022-09-21T03:09:01;9.50;99.90
43842;DHT22;29495;49.970;20.842;2022-09-21T03:11:28;9.50;99.90
43842;DHT22;29495;49.970;20.842;2022-09-21T03:13:53;9.40;99.90
43842;DHT22;29495;49.970;20.842;2022-09-21T03:16:20;9.50;99.90
43842;DHT22;29495;49.970;20.842;2022-09-21T03:18:47;9.60;99.90
43842;DHT22;29495;49.970;20.842;2022-09-21T03:21:13;9.50;99.90
43842;DHT22;29495;49.970;20.842;2022-09-21T03:23:39;9.50;99.90
43842;DHT22;29495;49.970;20.842;2022-09-21T03:26:06;9.50;99.90
43842;DHT22;29495;49.970;20.842;2022-09-21T03:28:33;9.50;99.90
43842;DHT22;29495;49.970;20.842;2022-09-21T03:30:59;9.50;99.90
43842;DHT22;29495;49.970;20.842;2022-09-21T03:33:25;9.40;99.90
43842;DHT22;29495;49.970;20.842;2022-09-21T03:35:51;9.50;99.90
43842;DHT22;29495;49.970;20.842;2022-09-21T03:38:18;9.50;99.90
43842;DHT22;29495;49.970;20.842;2022-09-21T03:40:46;9.40;99.90
43842;DHT22;29495;49.970;20.842;2022-09-21T03:43:14;9.50;99.90
43842;DHT22;29495;49.970;20.842;2022-09-21T03:45:40;9.50;99.90
43842;DHT22;29495;49.970;20.842;2022-09-21T03:48:08;9.60;99.90
43842;DHT22;29495;49.970;20.842;2022-09-21T03:50:35;9.60;99.90
43842;DHT22;29495;49.970;20.842;2022-09-21T03:53:02;9.60;99.90
43842;DHT22;29495;49.970;20.842;2022-09-21T03:55:28;9.50;99.90
43842;DHT22;29495;49.970;20.842;2022-09-21T03:57:54;9.50;99.90
43842;DHT22;29495;49.970;20.842;2022-09-21T04:00:21;9.50;99.90
43842;DHT22;29495;49.970;20.842;2022-09-21T04:02:46;9.50;99.90
43842;DHT22;29495;49.970;20.842;2022-09-21T04:05:14;9.50;99.90
43842;DHT22;29495;49.970;20.842;2022-09-21T04:07:42;9.60;99.90
43842;DHT22;29495;49.970;20.842;2022-09-21T04:10:12;9.50;99.90
43842;DHT22;29495;49.970;20.842;2022-09-21T04:12:40;9.50;99.90
43842;DHT22;29495;49.970;20.842;2022-09-21T04:15:12;9.50;99.90
43842;DHT22;29495;49.970;20.842;2022-09-21T04:17:39;9.50;99.90
43842;DHT22;29495;49.970;20.842;2022-09-21T04:20:06;9.50;99.90
43842;DHT22;29495;49.970;20.842;2022-09-21T04:22:34;9.50;99.90
43842;DHT22;29495;49.970;20.842;2022-09-21T04:25:02;9.40;99.90
43842;DHT22;29495;49.970;20.842;2022-09-21T04:27:30;9.40;99.90
43842;DHT22;29495;49.970;20.842;2022-09-21T04:29:56;9.40;99.90
43842;DHT22;29495;49.970;20.842;2022-09-21T04:32:22;9.40;99.90
43842;DHT22;29495;49.970;20.842;2022-09-21T04:34:48;9.40;99.90
43842;DHT22;29495;49.970;20.842;2022-09-21T04:37:14;9.40;99.90
43842;DHT22;29495;49.970;20.842;2022-09-21T04:39:40;9.40;99.90
43842;DHT22;29495;49.970;20.842;2022-09-21T04:42:06;9.40;99.90
43842;DHT22;29495;49.970;20.842;2022-09-21T04:44:32;9.40;99.90
43842;DHT22;29495;49.970;20.842;2022-09-21T04:46:58;9.50;99.90
43842;DHT22;29495;49.970;20.842;2022-09-21T04:49:25;9.40;99.90
43842;DHT22;29495;49.970;20.842;2022-09-21T04:51:50;9.40;99.90
43842;DHT22;29495;49.970;20.842;2022-09-21T04:54:16;9.40;99.90
43842;DHT22;29495;49.970;20.842;2022-09-21T04:56:42;9.30;99.90
43842;DHT22;29495;49.970;20.842;2022-09-21T04:59:08;9.40;99.90
43842;DHT22;29495;49.970;20.842;2022-09-21T05:01:35;9.40;99.90
43842;DHT22;29495;49.970;20.842;2022-09-21T05:04:01;9.50;99.90
43842;DHT22;29495;49.970;20.842;2022-09-21T05:06:28;9.50;99.90
43842;DHT22;29495;49.970;20.842;2022-09-21T05:08:55;9.50;99.90
43842;DHT22;29495;49.970;20.842;2022-09-21T05:11:39;9.40;99.90
43842;DHT22;29495;49.970;20.842;2022-09-21T05:14:06;9.50;99.90
43842;DHT22;29495;49.970;20.842;2022-09-21T05:16:32;9.50;99.90
43842;DHT22;29495;49.970;20.842;2022-09-21T05:18:58;9.50;99.90
43842;DHT22;29495;49.970;20.842;2022-09-21T05:21:24;9.50;99.90
43842;DHT22;29495;49.970;20.842;2022-09-21T05:23:51;9.60;99.90
43842;DHT22;29495;49.970;20.842;2022-09-21T05:26:18;9.60;99.90
43842;DHT22;29495;49.970;20.842;2022-09-21T05:28:44;9.70;99.90
43842;DHT22;29495;49.970;20.842;2022-09-21T05:37:11;9.60;99.90
43842;DHT22;29495;49.970;20.842;2022-09-21T05:39:43;9.70;99.90
43842;DHT22;29495;49.970;20.842;2022-09-21T05:42:09;9.60;99.90
43842;DHT22;29495;49.970;20.842;2022-09-21T05:44:36;9.70;99.90
43842;DHT22;29495;49.970;20.842;2022-09-21T05:47:37;9.70;99.90
43842;DHT22;29495;49.970;20.842;2022-09-21T05:55:26;9.70;99.90
43842;DHT22;29495;49.970;20.842;2022-09-21T06:00:41;9.70;99.90
43842;DHT22;29495;49.970;20.842;2022-09-21T06:03:29;9.70;99.90
43842;DHT22;29495;49.970;20.842;2022-09-21T06:05:56;9.60;99.90
43842;DHT22;29495;49.970;20.842;2022-09-21T06:08:24;9.70;99.90
43842;DHT22;29495;49.970;20.842;2022-09-21T06:10:51;9.80;99.90
43842;DHT22;29495;49.970;20.842;2022-09-21T06:13:17;9.90;99.90
43842;DHT22;29495;49.970;20.842;2022-09-21T06:15:43;9.80;99.90
43842;DHT22;29495;49.970;20.842;2022-09-21T06:18:09;9.80;99.90
43842;DHT22;29495;49.970;20.842;2022-09-21T06:20:36;9.80;99.90
43842;DHT22;29495;49.970;20.842;2022-09-21T06:23:03;9.90;99.90
43842;DHT22;29495;49.970;20.842;2022-09-21T06:25:29;9.90;99.90
43842;DHT22;29495;49.970;20.842;2022-09-21T06:28:01;10.00;99.90
43842;DHT22;29495;49.970;20.842;2022-09-21T06:30:27;10.10;99.90
43842;DHT22;29495;49.970;20.842;2022-09-21T06:32:53;10.20;99.90
43842;DHT22;29495;49.970;20.842;2022-09-21T06:35:19;10.20;99.90
43842;DHT22;29495;49.970;20.842;2022-09-21T06:37:45;10.10;99.90
43842;DHT22;29495;49.970;20.842;2022-09-21T06:40:11;10.10;99.90
43842;DHT22;29495;49.970;20.842;2022-09-21T06:42:37;10.20;99.90
43842;DHT22;29495;49.970;20.842;2022-09-21T06:45:03;10.20;99.90
43842;DHT22;29495;49.970;20.842;2022-09-21T06:47:29;10.20;99.90
43842;DHT22;29495;49.970;20.842;2022-09-21T06:49:55;10.20;99.90
43842;DHT22;29495;49.970;20.842;2022-09-21T06:52:21;10.20;99.90
43842;DHT22;29495;49.970;20.842;2022-09-21T06:54:46;10.20;99.90
43842;DHT22;29495;49.970;20.842;2022-09-21T06:57:12;10.30;99.90
43842;DHT22;29495;49.970;20.842;2022-09-21T06:59:38;10.40;99.90
43842;DHT22;29495;49.970;20.842;2022-09-21T07:02:04;10.50;99.90
43842;DHT22;29495;49.970;20.842;2022-09-21T07:04:31;10.60;99.90
43842;DHT22;29495;49.970;20.842;2022-09-21T07:06:57;10.60;99.90
43842;DHT22;29495;49.970;20.842;2022-09-21T07:09:23;10.70;99.90
43842;DHT22;29495;49.970;20.842;2022-09-21T07:11:49;10.60;99.90
43842;DHT22;29495;49.970;20.842;2022-09-21T07:14:15;10.70;99.90
43842;DHT22;29495;49.970;20.842;2022-09-21T07:16:41;10.70;99.90
43842;DHT22;29495;49.970;20.842;2022-09-21T07:19:08;10.70;99.90
43842;DHT22;29495;49.970;20.842;2022-09-21T07:21:34;10.80;99.90
43842;DHT22;29495;49.970;20.842;2022-09-21T07:24:00;10.80;99.90
43842;DHT22;29495;49.970;20.842;2022-09-21T07:26:26;10.90;99.90
43842;DHT22;29495;49.970;20.842;2022-09-21T07:28:52;11.00;99.90
43842;DHT22;29495;49.970;20.842;2022-09-21T07:31:18;11.10;99.90
43842;DHT22;29495;49.970;20.842;2022-09-21T07:33:44;11.00;99.90
43842;DHT22;29495;49.970;20.842;2022-09-21T07:36:13;11.10;99.90
43842;DHT22;29495;49.970;20.842;2022-09-21T07:38:41;11.00;99.90
43842;DHT22;29495;49.970;20.842;2022-09-21T07:41:09;11.00;99.90
43842;DHT22;29495;49.970;20.842;2022-09-21T07:43:35;10.90;99.90
43842;DHT22;29495;49.970;20.842;2022-09-21T07:46:09;11.00;99.90
43842;DHT22;29495;49.970;20.842;2022-09-21T07:48:36;11.00;99.90
43842;DHT22;29495;49.970;20.842;2022-09-21T07:51:04;11.20;99.90
43842;DHT22;29495;49.970;20.842;2022-09-21T07:53:35;11.30;99.90
43842;DHT22;29495;49.970;20.842;2022-09-21T07:56:06;11.20;99.90
43842;DHT22;29495;49.970;20.842;2022-09-21T07:58:34;11.30;99.90
43842;DHT22;29495;49.970;20.842;2022-09-21T08:01:19;11.40;99.90
43842;DHT22;29495;49.970;20.842;2022-09-21T08:03:48;11.40;99.90
43842;DHT22;29495;49.970;20.842;2022-09-21T08:06:14;11.40;99.90
43842;DHT22;29495;49.970;20.842;2022-09-21T08:08:40;11.60;99.90
43842;DHT22;29495;49.970;20.842;2022-09-21T08:11:07;11.60;99.90
43842;DHT22;29495;49.970;20.842;2022-09-21T08:13:33;11.50;99.90
43842;DHT22;29495;49.970;20.842;2022-09-21T08:16:00;11.60;99.90
43842;DHT22;29495;49.970;20.842;2022-09-21T08:18:27;11.30;99.90
43842;DHT22;29495;49.970;20.842;2022-09-21T08:20:54;11.30;99.90
43842;DHT22;29495;49.970;20.842;2022-09-21T08:23:21;11.30;99.90
43842;DHT22;29495;49.970;20.842;2022-09-21T08:25:47;11.40;99.90
43842;DHT22;29495;49.970;20.842;2022-09-21T08:28:13;11.40;99.90
43842;DHT22;29495;49.970;20.842;2022-09-21T08:30:40;11.40;99.90
43842;DHT22;29495;49.970;20.842;2022-09-21T08:33:07;11.50;99.90
43842;DHT22;29495;49.970;20.842;2022-09-21T08:35:34;11.60;99.90
43842;DHT22;29495;49.970;20.842;2022-09-21T08:38:01;11.60;99.90
43842;DHT22;29495;49.970;20.842;2022-09-21T08:40:27;11.90;99.90
43842;DHT22;29495;49.970;20.842;2022-09-21T08:43:08;11.90;99.90
43842;DHT22;29495;49.970;20.842;2022-09-21T08:45:39;11.90;99.90
43842;DHT22;29495;49.970;20.842;2022-09-21T08:48:20;12.00;99.90
43842;DHT22;29495;49.970;20.842;2022-09-21T08:50:51;12.00;99.90
43842;DHT22;29495;49.970;20.842;2022-09-21T08:53:39;12.00;99.90
43842;DHT22;29495;49.970;20.842;2022-09-21T08:56:14;12.00;99.90
43842;DHT22;29495;49.970;20.842;2022-09-21T08:58:41;11.90;99.90
43842;DHT22;29495;49.970;20.842;2022-09-21T09:06:56;11.90;99.90
43842;DHT22;29495;49.970;20.842;2022-09-21T09:18:02;12.30;99.90
43842;DHT22;29495;49.970;20.842;2022-09-21T09:20:30;12.50;99.90
43842;DHT22;29495;49.970;20.842;2022-09-21T09:25:55;12.60;99.90
43842;DHT22;29495;49.970;20.842;2022-09-21T09:28:32;12.90;99.90
43842;DHT22;29495;49.970;20.842;2022-09-21T09:31:22;13.00;99.90
43842;DHT22;29495;49.970;20.842;2022-09-21T09:34:37;12.90;99.90
43842;DHT22;29495;49.970;20.842;2022-09-21T09:37:00;13.00;99.90
43842;DHT22;29495;49.970;20.842;2022-09-21T09:39:30;13.10;99.90
43842;DHT22;29495;49.970;20.842;2022-09-21T09:42:09;13.10;99.90
43842;DHT22;29495;49.970;20.842;2022-09-21T09:50:22;13.10;99.90
43842;DHT22;29495;49.970;20.842;2022-09-21T09:52:51;13.10;99.90
43842;DHT22;29495;49.970;20.842;2022-09-21T09:55:23;13.20;99.90
43842;DHT22;29495;49.970;20.842;2022-09-21T09:57:52;13.10;99.90
43842;DHT22;29495;49.970;20.842;2022-09-21T10:00:20;13.00;99.90
43842;DHT22;29495;49.970;20.842;2022-09-21T10:02:51;12.80;99.90
43842;DHT22;29495;49.970;20.842;2022-09-21T10:05:31;12.90;99.90
43842;DHT22;29495;49.970;20.842;2022-09-21T10:07:58;13.10;99.90
43842;DHT22;29495;49.970;20.842;2022-09-21T10:12:56;13.50;99.90
43842;DHT22;29495;49.970;20.842;2022-09-21T10:15:28;13.50;99.90
43842;DHT22;29495;49.970;20.842;2022-09-21T10:18:09;13.20;99.90
43842;DHT22;29495;49.970;20.842;2022-09-21T10:20:38;13.50;99.90
43842;DHT22;29495;49.970;20.842;2022-09-21T10:23:11;13.60;99.90
43842;DHT22;29495;49.970;20.842;2022-09-21T10:25:40;13.60;99.90
43842;DHT22;29495;49.970;20.842;2022-09-21T10:28:10;13.60;99.90
43842;DHT22;29495;49.970;20.842;2022-09-21T10:30:37;13.80;99.90
43842;DHT22;29495;49.970;20.842;2022-09-21T10:33:18;13.90;99.90
43842;DHT22;29495;49.970;20.842;2022-09-21T10:35:51;14.20;99.90
43842;DHT22;29495;49.970;20.842;2022-09-21T10:38:19;14.60;99.90
43842;DHT22;29495;49.970;20.842;2022-09-21T10:40:46;14.70;99.90
43842;DHT22;29495;49.970;20.842;2022-09-21T10:43:44;14.10;99.90
43842;DHT22;29495;49.970;20.842;2022-09-21T10:46:10;13.90;99.90
43842;DHT22;29495;49.970;20.842;2022-09-21T10:48:36;13.80;99.90
43842;DHT22;29495;49.970;20.842;2022-09-21T10:51:03;13.80;99.90
43842;DHT22;29495;49.970;20.842;2022-09-21T10:53:33;13.90;99.90
43842;DHT22;29495;49.970;20.842;2022-09-21T10:58:33;14.10;99.90
43842;DHT22;29495;49.970;20.842;2022-09-21T11:01:22;14.20;99.90
43842;DHT22;29495;49.970;20.842;2022-09-21T11:04:08;14.40;99.90
43842;DHT22;29495;49.970;20.842;2022-09-21T11:06:43;14.20;99.90
43842;DHT22;29495;49.970;20.842;2022-09-21T11:09:40;14.10;99.90
43842;DHT22;29495;49.970;20.842;2022-09-21T11:15:13;14.00;99.90
43842;DHT22;29495;49.970;20.842;2022-09-21T11:21:12;14.10;99.90
43842;DHT22;29495;49.970;20.842;2022-09-21T11:23:48;14.50;99.90
43842;DHT22;29495;49.970;20.842;2022-09-21T11:29:04;14.70;99.90
43842;DHT22;29495;49.970;20.842;2022-09-21T11:34:51;14.60;99.90
43842;DHT22;29495;49.970;20.842;2022-09-21T11:37:15;14.70;99.90
43842;DHT22;29495;49.970;20.842;2022-09-21T11:45:02;15.40;99.90
43842;DHT22;29495;49.970;20.842;2022-09-21T11:47:57;15.40;99.90
43842;DHT22;29495;49.970;20.842;2022-09-21T11:53:10;15.90;99.90
43842;DHT22;29495;49.970;20.842;2022-09-21T11:56:02;16.00;99.90
43842;DHT22;29495;49.970;20.842;2022-09-21T12:13:25;15.90;99.90
43842;DHT22;29495;49.970;20.842;2022-09-21T12:17:04;15.90;99.90
43842;DHT22;29495;49.970;20.842;2022-09-21T12:21:53;15.30;99.90
43842;DHT22;29495;49.970;20.842;2022-09-21T12:24:26;15.30;99.90
43842;DHT22;29495;49.970;20.842;2022-09-21T12:26:57;15.30;99.90
43842;DHT22;29495;49.970;20.842;2022-09-21T12:29:48;15.20;99.90
43842;DHT22;29495;49.970;20.842;2022-09-21T12:35:29;15.60;99.90
43842;DHT22;29495;49.970;20.842;2022-09-21T12:46:11;16.10;99.90
43842;DHT22;29495;49.970;20.842;2022-09-21T12:48:38;16.10;99.90
43842;DHT22;29495;49.970;20.842;2022-09-21T12:51:32;16.10;99.90
43842;DHT22;29495;49.970;20.842;2022-09-21T12:54:15;15.80;99.90
43842;DHT22;29495;49.970;20.842;2022-09-21T13:04:49;15.70;99.90
43842;DHT22;29495;49.970;20.842;2022-09-21T13:10:06;15.50;99.90
43842;DHT22;29495;49.970;20.842;2022-09-21T13:12:40;15.20;99.90
43842;DHT22;29495;49.970;20.842;2022-09-21T13:15:20;15.00;99.90
43842;DHT22;29495;49.970;20.842;2022-09-21T13:18:06;14.60;99.90
43842;DHT22;29495;49.970;20.842;2022-09-21T13:20:41;14.40;99.90
43842;DHT22;29495;49.970;20.842;2022-09-21T13:23:16;14.30;99.90
43842;DHT22;29495;49.970;20.842;2022-09-21T13:25:59;14.50;99.90
43842;DHT22;29495;49.970;20.842;2022-09-21T13:28:40;14.40;99.90
43842;DHT22;29495;49.970;20.842;2022-09-21T13:33:40;14.20;99.90
43842;DHT22;29495;49.970;20.842;2022-09-21T13:36:34;14.00;99.90
43842;DHT22;29495;49.970;20.842;2022-09-21T13:39:17;13.80;99.90
43842;DHT22;29495;49.970;20.842;2022-09-21T13:41:44;13.70;99.90
43842;DHT22;29495;49.970;20.842;2022-09-21T13:44:38;13.30;99.90
43842;DHT22;29495;49.970;20.842;2022-09-21T13:47:06;12.90;99.90
43842;DHT22;29495;49.970;20.842;2022-09-21T13:49:43;13.00;99.90
43842;DHT22;29495;49.970;20.842;2022-09-21T13:55:03;12.90;99.90
43842;DHT22;29495;49.970;20.842;2022-09-21T13:57:46;12.80;99.90
43842;DHT22;29495;49.970;20.842;2022-09-21T14:03:00;13.10;99.90
43842;DHT22;29495;49.970;20.842;2022-09-21T14:05:38;13.30;99.90
43842;DHT22;29495;49.970;20.842;2022-09-21T14:08:28;13.40;99.90
43842;DHT22;29495;49.970;20.842;2022-09-21T14:11:06;13.50;99.90
43842;DHT22;29495;49.970;20.842;2022-09-21T14:13:40;13.70;99.90
43842;DHT22;29495;49.970;20.842;2022-09-21T14:19:00;14.00;99.90
43842;DHT22;29495;49.970;20.842;2022-09-21T14:21:26;13.80;99.90
43842;DHT22;29495;49.970;20.842;2022-09-21T14:26:33;14.00;99.90
43842;DHT22;29495;49.970;20.842;2022-09-21T14:29:14;13.90;99.90
43842;DHT22;29495;49.970;20.842;2022-09-21T14:31:42;13.90;99.90
43842;DHT22;29495;49.970;20.842;2022-09-21T14:34:22;13.90;99.90
43842;DHT22;29495;49.970;20.842;2022-09-21T14:36:54;14.00;99.90
43842;DHT22;29495;49.970;20.842;2022-09-21T14:39:29;14.00;99.90
43842;DHT22;29495;49.970;20.842;2022-09-21T14:42:00;14.10;99.90
43842;DHT22;29495;49.970;20.842;2022-09-21T14:44:29;13.90;99.90
43842;DHT22;29495;49.970;20.842;2022-09-21T14:50:05;13.90;99.90
43842;DHT22;29495;49.970;20.842;2022-09-21T14:58:47;13.80;99.90
43842;DHT22;29495;49.970;20.842;2022-09-21T15:06:33;13.90;99.90
43842;DHT22;29495;49.970;20.842;2022-09-21T15:10:09;14.00;99.90
43842;DHT22;29495;49.970;20.842;2022-09-21T15:12:58;14.00;99.90
43842;DHT22;29495;49.970;20.842;2022-09-21T15:18:19;14.00;99.90
43842;DHT22;29495;49.970;20.842;2022-09-21T15:20:55;14.00;99.90
43842;DHT22;29495;49.970;20.842;2022-09-21T15:23:28;13.90;99.90
43842;DHT22;29495;49.970;20.842;2022-09-21T15:26:02;13.90;99.90
43842;DHT22;29495;49.970;20.842;2022-09-21T15:28:36;13.80;99.90
43842;DHT22;29495;49.970;20.842;2022-09-21T15:31:04;13.70;99.90
43842;DHT22;29495;49.970;20.842;2022-09-21T15:33:39;13.60;99.90
43842;DHT22;29495;49.970;20.842;2022-09-21T15:36:08;13.60;99.90
43842;DHT22;29495;49.970;20.842;2022-09-21T15:38:35;13.40;99.90
43842;DHT22;29495;49.970;20.842;2022-09-21T15:41:05;13.30;99.90
43842;DHT22;29495;49.970;20.842;2022-09-21T15:43:34;13.00;99.90
43842;DHT22;29495;49.970;20.842;2022-09-21T15:46:06;12.80;99.90
43842;DHT22;29495;49.970;20.842;2022-09-21T15:48:39;12.80;99.90
43842;DHT22;29495;49.970;20.842;2022-09-21T15:53:57;12.80;99.90
43842;DHT22;29495;49.970;20.842;2022-09-21T15:56:26;12.80;99.90
43842;DHT22;29495;49.970;20.842;2022-09-21T15:59:03;12.80;99.90
43842;DHT22;29495;49.970;20.842;2022-09-21T16:01:42;12.80;99.90
43842;DHT22;29495;49.970;20.842;2022-09-21T16:04:18;12.80;99.90
43842;DHT22;29495;49.970;20.842;2022-09-21T16:06:55;12.70;99.90
43842;DHT22;29495;49.970;20.842;2022-09-21T16:11:49;12.60;99.90
43842;DHT22;29495;49.970;20.842;2022-09-21T16:14:16;12.60;99.90
43842;DHT22;29495;49.970;20.842;2022-09-21T16:17:11;12.40;99.90
43842;DHT22;29495;49.970;20.842;2022-09-21T16:22:22;12.30;99.90
43842;DHT22;29495;49.970;20.842;2022-09-21T16:24:52;12.20;99.90
43842;DHT22;29495;49.970;20.842;2022-09-21T16:27:23;12.20;99.90
43842;DHT22;29495;49.970;20.842;2022-09-21T16:29:51;12.10;99.90
43842;DHT22;29495;49.970;20.842;2022-09-21T16:34:50;11.90;99.90
43842;DHT22;29495;49.970;20.842;2022-09-21T16:39:53;11.70;99.90
43842;DHT22;29495;49.970;20.842;2022-09-21T16:42:21;11.50;99.90
43842;DHT22;29495;49.970;20.842;2022-09-21T16:44:47;11.50;99.90
43842;DHT22;29495;49.970;20.842;2022-09-21T16:47:22;11.40;99.90
43842;DHT22;29495;49.970;20.842;2022-09-21T16:49:57;11.30;99.90
43842;DHT22;29495;49.970;20.842;2022-09-21T16:52:27;11.20;99.90
43842;DHT22;29495;49.970;20.842;2022-09-21T16:54:54;11.20;99.90
43842;DHT22;29495;49.970;20.842;2022-09-21T16:57:22;11.10;99.90
43842;DHT22;29495;49.970;20.842;2022-09-21T16:59:49;11.10;99.90
43842;DHT22;29495;49.970;20.842;2022-09-21T17:02:16;11.00;99.90
43842;DHT22;29495;49.970;20.842;2022-09-21T17:04:43;11.00;99.90
43842;DHT22;29495;49.970;20.842;2022-09-21T17:07:13;11.00;99.90
43842;DHT22;29495;49.970;20.842;2022-09-21T17:09:44;11.00;99.90
43842;DHT22;29495;49.970;20.842;2022-09-21T17:12:15;10.80;99.90
43842;DHT22;29495;49.970;20.842;2022-09-21T17:14:42;10.80;99.90
43842;DHT22;29495;49.970;20.842;2022-09-21T17:19:40;10.80;99.90
43842;DHT22;29495;49.970;20.842;2022-09-21T17:22:08;10.90;99.90
43842;DHT22;29495;49.970;20.842;2022-09-21T17:24:45;10.90;99.90
43842;DHT22;29495;49.970;20.842;2022-09-21T17:27:13;10.90;99.90
43842;DHT22;29495;49.970;20.842;2022-09-21T17:29:43;10.90;99.90
43842;DHT22;29495;49.970;20.842;2022-09-21T17:32:19;10.90;99.90
43842;DHT22;29495;49.970;20.842;2022-09-21T17:34:46;10.90;99.90
43842;DHT22;29495;49.970;20.842;2022-09-21T17:37:14;10.90;99.90
43842;DHT22;29495;49.970;20.842;2022-09-21T17:39:40;11.00;99.90
43842;DHT22;29495;49.970;20.842;2022-09-21T17:42:18;11.00;99.90
43842;DHT22;29495;49.970;20.842;2022-09-21T17:47:38;11.00;99.90
43842;DHT22;29495;49.970;20.842;2022-09-21T17:50:25;11.00;99.90
43842;DHT22;29495;49.970;20.842;2022-09-21T17:52:53;11.10;99.90
43842;DHT22;29495;49.970;20.842;2022-09-21T17:55:44;11.10;99.90
43842;DHT22;29495;49.970;20.842;2022-09-21T18:03:23;11.20;99.90
43842;DHT22;29495;49.970;20.842;2022-09-21T18:05:54;11.20;99.90
43842;DHT22;29495;49.970;20.842;2022-09-21T18:08:26;11.20;99.90
43842;DHT22;29495;49.970;20.842;2022-09-21T18:16:21;11.20;99.90
43842;DHT22;29495;49.970;20.842;2022-09-21T18:21:28;11.20;99.90
43842;DHT22;29495;49.970;20.842;2022-09-21T18:24:15;11.20;99.90
43842;DHT22;29495;49.970;20.842;2022-09-21T18:26:43;11.20;99.90
43842;DHT22;29495;49.970;20.842;2022-09-21T18:29:36;11.20;99.90
43842;DHT22;29495;49.970;20.842;2022-09-21T18:45:57;11.10;99.90
43842;DHT22;29495;49.970;20.842;2022-09-21T18:51:36;11.00;99.90
43842;DHT22;29495;49.970;20.842;2022-09-21T18:54:05;11.10;99.90
43842;DHT22;29495;49.970;20.842;2022-09-21T18:56:35;10.90;99.90
43842;DHT22;29495;49.970;20.842;2022-09-21T18:59:02;11.00;99.90
43842;DHT22;29495;49.970;20.842;2022-09-21T19:01:30;10.90;99.90
43842;DHT22;29495;49.970;20.842;2022-09-21T19:03:59;10.90;99.90
43842;DHT22;29495;49.970;20.842;2022-09-21T19:06:30;10.80;99.90
43842;DHT22;29495;49.970;20.842;2022-09-21T19:11:46;10.80;99.90
43842;DHT22;29495;49.970;20.842;2022-09-21T19:14:35;10.80;99.90
43842;DHT22;29495;49.970;20.842;2022-09-21T19:25:46;10.80;99.90
43842;DHT22;29495;49.970;20.842;2022-09-21T19:31:06;10.70;99.90